Time;durP1;ratioP1;P1;durP2;ratioP2;P2;SDS_P1;SDS_P2;PMS_P1;PMS_P2;Temp;Humidity;BMP_temperature;BMP_pressure;BME280_temperature;BME280_humidity;BME280_pressure;Samples;Min_cycle;Max_cycle;Signal;HPM_P1;HPM_P2
2022/11/12 00:01:45;;;;;;;3.23;2.93;;;3.30;99.90;4.40;98373.00;;;;5052599;28;20477;-67
2022/11/12 00:04:34;;;;;;;3.33;2.93;;;;;4.00;98368.00;;;;5053060;28;20451;-67
2022/11/12 00:07:23;;;;;;;3.07;2.60;;;3.40;99.90;3.80;98370.00;;;;5052922;28;20459;-67
2022/11/12 00:10:12;;;;;;;8.30;3.17;;;3.30;99.90;4.00;98362.00;;;;5052432;28;20497;-67
2022/11/12 00:13:02;;;;;;;3.77;2.97;;;3.30;99.90;4.10;98365.00;;;;5051735;28;20478;-67
2022/11/12 00:15:51;;;;;;;3.30;2.10;;;3.20;99.90;3.80;98371.00;;;;5050301;28;20532;-68
2022/11/12 00:18:39;;;;;;;6.20;3.87;;;3.20;99.90;3.90;98358.00;;;;5045724;28;21013;-67
2022/11/12 00:21:28;;;;;;;3.17;2.57;;;3.10;99.90;4.10;98348.00;;;;5047379;28;20420;-67
2022/11/12 00:24:17;;;;;;;6.17;2.90;;;3.20;99.90;3.90;98349.00;;;;5041249;28;20495;-67
2022/11/12 00:27:06;;;;;;;4.30;3.10;;;3.40;99.90;3.30;98351.00;;;;5046928;28;20432;-67
2022/11/12 00:29:56;;;;;;;8.97;2.93;;;3.00;99.90;3.60;98343.00;;;;5052748;28;20909;-68
2022/11/12 00:32:44;;;;;;;7.23;4.37;;;3.00;99.90;3.90;98346.00;;;;5051783;28;20451;-67
2022/11/12 00:35:34;;;;;;;5.03;4.53;;;3.00;99.90;3.90;98331.00;;;;5051649;28;20463;-67
2022/11/12 00:38:23;;;;;;;6.27;3.23;;;3.00;99.90;3.40;98328.00;;;;5043522;28;20482;-67
2022/11/12 00:41:11;;;;;;;2.93;2.47;;;3.00;99.90;3.70;98336.00;;;;5040030;28;20412;-67
2022/11/12 00:44:00;;;;;;;2.70;2.23;;;3.00;99.90;3.60;98343.00;;;;5051105;28;20420;-67
2022/11/12 00:46:50;;;;;;;2.23;2.03;;;2.90;99.90;3.70;98351.00;;;;5052375;28;20438;-67
2022/11/12 00:49:39;;;;;;;3.07;2.77;;;2.90;99.90;3.70;98347.00;;;;5045598;28;20957;-68
2022/11/12 00:52:28;;;;;;;4.90;3.33;;;2.90;99.90;4.10;98339.00;;;;5037687;28;20440;-67
2022/11/12 00:55:16;;;;;;;7.73;4.27;;;3.10;99.90;4.10;98334.00;;;;5050238;28;20901;-67
2022/11/12 00:58:05;;;;;;;6.13;4.73;;;3.10;99.90;4.40;98338.00;;;;5052194;28;20489;-67
2022/11/12 01:00:54;;;;;;;4.80;3.67;;;3.20;99.90;4.60;98334.00;;;;5040017;28;20486;-67
2022/11/12 01:03:44;;;;;;;6.90;3.87;;;3.30;99.90;4.40;98335.00;;;;5050565;28;20509;-67
2022/11/12 01:06:33;;;;;;;5.57;3.20;;;3.40;99.90;4.10;98328.00;;;;5050553;28;20435;-67
2022/11/12 01:09:21;;;;;;;5.33;3.63;;;3.40;99.90;4.00;98320.00;;;;5044261;28;20993;-67
2022/11/12 01:12:10;;;;;;;8.20;3.33;;;3.30;99.90;3.90;98335.00;;;;5036052;28;20430;-67
2022/11/12 01:14:59;;;;;;;4.43;3.50;;;3.20;99.90;4.30;98329.00;;;;5050811;28;20920;-67
2022/11/12 01:17:48;;;;;;;6.83;3.83;;;3.30;99.90;4.00;98319.00;;;;5052024;28;20550;-67
2022/11/12 01:20:39;;;;;;;3.83;3.17;;;3.50;99.90;3.70;98317.00;;;;5040672;28;20426;-67
2022/11/12 01:23:28;;;;;;;3.17;2.23;;;3.20;99.90;3.70;98312.00;;;;5051422;28;20435;-67
2022/11/12 01:26:19;;;;;;;3.63;2.47;;;3.10;99.90;3.40;98301.00;;;;5044219;28;20428;-67
2022/11/12 01:29:08;;;;;;;4.10;3.30;;;3.00;99.90;3.80;98315.00;;;;5051055;28;20463;-67
2022/11/12 01:31:57;;;;;;;5.53;3.70;;;3.00;99.90;3.70;98308.00;;;;5045234;28;20487;-67
2022/11/12 01:34:46;;;;;;;3.90;3.07;;;3.00;99.90;3.70;98309.00;;;;5036368;28;20520;-67
2022/11/12 01:37:36;;;;;;;6.37;3.70;;;3.10;99.90;3.80;98315.00;;;;5051607;28;20947;-67
2022/11/12 01:40:24;;;;;;;4.70;2.80;;;3.00;99.90;4.00;98311.00;;;;5049240;28;20427;-67
2022/11/12 01:43:13;;;;;;;5.67;3.30;;;3.00;99.90;3.90;98312.00;;;;5051650;28;20482;-67
2022/11/12 01:46:07;;;;;;;2.83;2.27;;;3.10;99.90;4.10;98304.00;;;;5032286;28;20514;-67
2022/11/12 01:49:00;;;;;;;3.97;3.57;;;3.20;99.90;4.10;98306.00;;;;5036951;28;20463;-67
2022/11/12 01:51:51;;;;;;;3.27;2.97;;;3.20;99.90;3.80;98305.00;;;;5049663;28;20445;-67
2022/11/12 01:54:42;;;;;;;3.67;2.63;;;3.10;99.90;3.50;98300.00;;;;5050466;28;20444;-67
2022/11/12 01:57:37;;;;;;;5.13;2.87;;;3.00;99.90;3.20;98297.00;;;;5039987;28;20501;-67
2022/11/12 02:00:26;;;;;;;3.40;2.97;;;2.90;99.90;3.40;98299.00;;;;5047022;28;20807;-68
2022/11/12 02:03:21;;;;;;;3.57;3.13;;;2.90;99.90;3.50;98297.00;;;;5036954;28;20432;-67
2022/11/12 02:06:14;;;;;;;3.60;2.87;;;2.90;99.90;3.50;98299.00;;;;5049394;28;20471;-68
2022/11/12 02:09:03;;;;;;;2.27;2.10;;;2.90;99.90;3.80;98297.00;;;;5049707;28;20467;-67
2022/11/12 02:11:53;;;;;;;7.10;3.67;;;2.90;99.90;3.90;98292.00;;;;5044437;28;20513;-67
2022/11/12 02:14:41;;;;;;;3.27;2.70;;;2.90;99.90;4.10;98284.00;;;;5033470;28;20480;-67
2022/11/12 02:17:30;;;;;;;10.73;3.83;;;3.10;99.90;4.20;98286.00;;;;5048640;28;20894;-67
2022/11/12 02:20:19;;;;;;;6.53;3.67;;;3.10;99.90;3.80;98280.00;;;;5043782;28;20811;-67
2022/11/12 02:23:09;;;;;;;5.67;4.07;;;3.10;99.90;3.80;98273.00;;;;5049408;28;20455;-68
2022/11/12 02:25:59;;;;;;;7.30;3.77;;;3.00;99.90;4.10;98278.00;;;;5040940;28;20898;-67
2022/11/12 02:28:47;;;;;;;6.87;3.87;;;3.00;99.90;3.90;98274.00;;;;5046885;28;20655;-68
2022/11/12 02:31:36;;;;;;;7.00;3.80;;;3.00;99.90;4.00;98266.00;;;;5045147;28;20420;-68
2022/11/12 02:34:25;;;;;;;6.63;4.67;;;3.00;99.90;3.70;98275.00;;;;5042430;28;20436;-67
2022/11/12 02:37:14;;;;;;;5.07;4.27;;;3.00;99.90;3.80;98273.00;;;;5040850;28;20927;-67
2022/11/12 02:40:05;;;;;;;3.73;3.33;;;2.90;99.90;3.50;98267.00;;;;5049960;28;20905;-67
2022/11/12 02:42:54;;;;;;;6.87;3.53;;;2.80;99.90;3.40;98256.00;;;;5044667;28;20490;-68
2022/11/12 02:45:43;;;;;;;6.40;3.27;;;;;3.00;98246.00;;;;5039172;28;21238;-68
2022/11/12 02:48:31;;;;;;;7.80;3.37;;;2.70;99.90;3.10;98249.00;;;;5048388;28;20600;-66
2022/11/12 02:51:20;;;;;;;4.77;3.50;;;2.70;99.90;3.20;98236.00;;;;5041363;28;20425;-68
2022/11/12 02:54:09;;;;;;;4.87;3.03;;;2.60;99.90;3.50;98244.00;;;;5045581;28;20452;-67
2022/11/12 02:56:59;;;;;;;7.90;5.00;;;2.70;99.90;3.80;98258.00;;;;5049226;28;20443;-67
2022/11/12 02:59:48;;;;;;;16.57;5.73;;;2.70;99.90;4.10;98254.00;;;;5048471;28;20450;-67
2022/11/12 03:02:41;;;;;;;9.90;5.33;;;2.90;99.90;4.00;98257.00;;;;5048949;28;20951;-68
2022/11/12 03:05:34;;;;;;;9.43;6.20;;;3.00;99.90;4.00;98254.00;;;;5037126;28;20454;-67
2022/11/12 03:08:23;;;;;;;7.33;5.40;;;3.00;99.90;4.00;98255.00;;;;5040045;28;20785;-68
2022/11/12 03:11:15;;;;;;;7.43;4.03;;;3.10;99.90;3.70;98261.00;;;;5047285;28;21010;-67
2022/11/12 03:14:05;;;;;;;6.87;2.80;;;3.20;99.90;3.30;98253.00;;;;5050098;28;20431;-67
2022/11/12 03:16:53;;;;;;;5.53;3.97;;;2.90;99.90;3.70;98258.00;;;;5049755;28;20851;-67
2022/11/12 03:19:42;;;;;;;9.60;4.07;;;2.80;99.90;3.70;98265.00;;;;5050154;28;20420;-67
2022/11/12 03:22:31;;;;;;;4.80;3.73;;;3.00;99.90;3.60;98269.00;;;;5049963;28;20938;-67
2022/11/12 03:25:19;;;;;;;6.00;3.43;;;2.90;99.90;3.70;98272.00;;;;5048983;28;20496;-68
2022/11/12 03:28:11;;;;;;;5.27;3.53;;;2.80;99.90;3.90;98275.00;;;;5035317;28;20494;-67
2022/11/12 03:31:02;;;;;;;4.80;3.80;;;2.90;99.90;4.00;98279.00;;;;5046838;28;20435;-67
2022/11/12 03:33:50;;;;;;;4.37;3.57;;;2.80;99.90;4.20;98284.00;;;;5037384;28;21304;-67
2022/11/12 03:36:39;;;;;;;6.07;3.47;;;3.10;99.90;4.20;98283.00;;;;5049244;28;20407;-67
2022/11/12 03:39:28;;;;;;;5.27;3.60;;;3.10;99.90;3.90;98290.00;;;;5046123;28;20502;-68
2022/11/12 03:42:17;;;;;;;4.77;3.37;;;;;3.90;98283.00;;;;5042775;28;20423;-67
2022/11/12 03:45:06;;;;;;;10.17;4.80;;;3.10;99.90;4.10;98273.00;;;;5037004;28;20528;-67
2022/11/12 03:47:58;;;;;;;4.63;3.87;;;3.20;99.90;4.00;98262.00;;;;5041529;28;20419;-67
2022/11/12 03:50:47;;;;;;;7.67;4.33;;;3.20;99.90;4.00;98269.00;;;;5052536;28;20467;-67
2022/11/12 03:53:35;;;;;;;6.27;3.83;;;3.10;99.90;3.90;98285.00;;;;5053294;28;20512;-67
2022/11/12 03:56:24;;;;;;;4.00;3.50;;;;;3.60;98274.00;;;;5052972;28;20853;-67
2022/11/12 03:59:13;;;;;;;7.37;4.27;;;3.00;99.90;3.50;98273.00;;;;5052772;28;21075;-67
2022/11/12 04:02:01;;;;;;;6.17;4.77;;;3.00;99.90;3.70;98264.00;;;;5051925;28;20942;-68
2022/11/12 04:11:11;;;;;;;8.53;4.33;;;2.90;99.90;3.60;98252.00;;;;5051401;28;20484;-68
2022/11/12 04:14:00;;;;;;;4.70;3.40;;;3.00;99.90;3.10;98251.00;;;;5053462;28;20798;-66
2022/11/12 04:23:02;;;;;;;5.37;3.40;;;3.00;99.90;3.80;98258.00;;;;5052095;28;21008;-68
2022/11/12 04:32:04;;;;;;;6.43;3.90;;;3.00;99.90;4.30;98266.00;;;;5047620;28;20476;-67
2022/11/12 04:34:53;;;;;;;5.20;3.70;;;3.00;99.90;4.30;98269.00;;;;5048261;28;20439;-67
2022/11/12 04:37:46;;;;;;;6.60;4.17;;;3.20;99.90;4.10;98261.00;;;;5051649;28;20427;-67
2022/11/12 04:46:47;;;;;;;6.40;4.20;;;3.20;99.90;4.40;98275.00;;;;5042926;28;20457;-68
2022/11/12 04:49:36;;;;;;;6.80;4.53;;;;;4.60;98269.00;;;;5039276;28;20536;-67
2022/11/12 04:52:25;;;;;;;5.33;3.70;;;3.30;99.90;4.60;98260.00;;;;5052419;28;20431;-67
2022/11/12 04:55:16;;;;;;;4.30;3.30;;;3.40;99.90;4.20;98259.00;;;;5051359;28;20458;-67
2022/11/12 04:58:04;;;;;;;8.23;4.27;;;3.40;99.90;4.40;98250.00;;;;5051520;28;20497;-67
2022/11/12 05:00:53;;;;;;;5.73;3.63;;;3.40;99.90;4.40;98261.00;;;;5051645;28;20485;-67
2022/11/12 05:03:42;;;;;;;4.97;3.97;;;3.40;99.90;4.50;98257.00;;;;5051747;28;20435;-67
2022/11/12 05:09:37;;;;;;;2.77;2.57;;;3.40;99.90;4.10;98255.00;;;;5050337;28;20878;-71
2022/11/12 05:12:27;;;;;;;7.30;3.50;;;3.40;99.90;4.10;98256.00;;;;5036398;28;20228;-67
2022/11/12 05:15:16;;;;;;;9.73;5.20;;;3.30;99.90;4.30;98260.00;;;;5048209;28;20440;-67
2022/11/12 05:18:05;;;;;;;11.83;4.50;;;3.30;99.90;4.50;98241.00;;;;5050694;28;20463;-67
2022/11/12 05:20:54;;;;;;;5.37;3.40;;;3.40;99.90;4.50;98241.00;;;;5051029;28;20427;-67
2022/11/12 05:23:42;;;;;;;3.87;3.50;;;3.50;99.90;4.30;98250.00;;;;5051847;28;20455;-67
2022/11/12 05:26:31;;;;;;;6.47;4.47;;;3.50;99.90;4.40;98239.00;;;;5044157;28;20466;-67
2022/11/12 05:29:21;;;;;;;5.10;4.10;;;3.50;99.90;4.50;98245.00;;;;5050298;28;20427;-67
2022/11/12 05:32:12;;;;;;;4.33;3.60;;;3.60;99.90;4.30;98236.00;;;;5043134;28;20436;-67
2022/11/12 05:35:01;;;;;;;5.33;3.93;;;3.50;99.90;4.50;98236.00;;;;5037500;28;20537;-67
2022/11/12 05:37:49;;;;;;;4.97;4.47;;;3.50;99.90;4.60;98244.00;;;;5041358;28;20469;-67
2022/11/12 05:40:38;;;;;;;4.30;3.77;;;3.50;99.90;4.80;98234.00;;;;5051427;28;20501;-67
2022/11/12 05:43:27;;;;;;;5.63;3.67;;;3.60;99.90;4.70;98245.00;;;;5051734;28;20262;-66
2022/11/12 05:46:17;;;;;;;5.93;4.63;;;3.70;99.90;4.80;98243.00;;;;5050875;28;20434;-67
2022/11/12 05:49:06;;;;;;;7.77;4.30;;;3.70;99.90;5.10;98256.00;;;;5049339;28;20262;-67
2022/11/12 05:51:55;;;;;;;7.47;4.40;;;3.80;99.90;5.10;98244.00;;;;5044811;28;20425;-67
2022/11/12 05:54:43;;;;;;;6.97;4.40;;;3.90;99.90;5.40;98262.00;;;;5037220;28;20282;-67
2022/11/12 05:57:32;;;;;;;6.67;4.63;;;4.00;99.90;5.40;98259.00;;;;5050207;28;20259;-67
2022/11/12 06:00:21;;;;;;;7.67;4.93;;;4.10;99.90;4.90;98257.00;;;;5051150;28;20260;-67
2022/11/12 06:03:12;;;;;;;7.63;3.97;;;4.10;99.90;4.90;98265.00;;;;5049339;28;20216;-67
2022/11/12 06:06:01;;;;;;;5.63;3.67;;;4.10;99.90;4.60;98255.00;;;;5040543;28;20227;-68
2022/11/12 06:08:50;;;;;;;5.20;3.53;;;3.90;99.90;4.40;98258.00;;;;5048866;28;20578;-67
2022/11/12 06:11:39;;;;;;;4.77;3.10;;;4.00;99.90;4.40;98252.00;;;;5047614;28;20494;-66
2022/11/12 06:14:28;;;;;;;4.63;3.63;;;3.80;99.90;4.50;98248.00;;;;5050208;28;20451;-67
2022/11/12 06:17:17;;;;;;;3.07;2.70;;;3.80;99.90;4.50;98254.00;;;;5051691;28;20193;-71
2022/11/12 06:20:08;;;;;;;4.73;3.33;;;3.80;99.90;4.60;98251.00;;;;5045607;28;20431;-66
2022/11/12 06:22:58;;;;;;;5.17;3.27;;;;;4.90;98261.00;;;;5035640;28;21019;-67
2022/11/12 06:25:47;;;;;;;5.93;3.77;;;3.90;99.90;5.30;98265.00;;;;5039127;28;20452;-67
2022/11/12 06:28:36;;;;;;;4.13;3.70;;;4.00;99.90;5.40;98268.00;;;;5036288;28;20197;-67
2022/11/12 06:31:25;;;;;;;3.93;3.53;;;4.10;99.90;5.20;98274.00;;;;5036939;28;20658;-67
2022/11/12 06:34:14;;;;;;;5.73;4.43;;;4.20;99.90;5.30;98272.00;;;;5034606;28;20235;-67
2022/11/12 06:37:05;;;;;;;4.33;3.60;;;4.20;99.90;5.70;98274.00;;;;5041082;28;20244;-67
2022/11/12 06:39:53;;;;;;;6.93;4.07;;;4.30;99.90;5.70;98274.00;;;;5037171;28;20238;-67
2022/11/12 06:42:42;;;;;;;7.20;4.50;;;4.40;99.90;5.40;98269.00;;;;5040936;28;20204;-67
2022/11/12 06:45:30;;;;;;;4.53;3.90;;;4.50;99.90;5.20;98267.00;;;;5037898;28;20224;-67
2022/11/12 06:48:19;;;;;;;4.37;3.37;;;4.40;99.90;5.10;98271.00;;;;5046355;28;20198;-67
2022/11/12 06:51:12;;;;;;;5.40;2.73;;;4.40;99.90;4.90;98271.00;;;;5044314;28;20308;-68
2022/11/12 06:54:02;;;;;;;3.20;2.83;;;4.50;99.90;5.10;98281.00;;;;5040353;28;20209;-67
2022/11/12 06:56:51;;;;;;;4.50;3.07;;;4.30;99.90;5.40;98274.00;;;;5039986;28;20286;-67
2022/11/12 06:59:39;;;;;;;5.83;3.90;;;4.40;99.90;5.40;98278.00;;;;5043441;28;20799;-67
2022/11/12 07:02:28;;;;;;;5.00;3.80;;;4.50;99.90;5.00;98272.00;;;;5035683;28;20204;-67
2022/11/12 07:05:17;;;;;;;5.93;3.47;;;4.40;99.90;5.30;98280.00;;;;5041024;28;20229;-66
2022/11/12 07:08:06;;;;;;;6.60;3.27;;;4.50;99.90;5.50;98281.00;;;;5038036;28;20224;-67
2022/11/12 07:10:58;;;;;;;2.97;2.37;;;4.50;99.90;5.30;98281.00;;;;5040057;28;20486;-68
2022/11/12 07:13:47;;;;;;;4.23;3.00;;;4.50;99.90;5.40;98274.00;;;;5045031;28;20614;-66
2022/11/12 07:16:36;;;;;;;3.33;2.03;;;4.60;99.90;5.40;98281.00;;;;5041215;28;20201;-68
2022/11/12 07:19:25;;;;;;;2.40;2.03;;;4.60;99.90;5.70;98275.00;;;;5035747;28;20233;-68
2022/11/12 07:22:13;;;;;;;2.53;2.07;;;4.70;99.90;5.70;98278.00;;;;5032484;28;20224;-69
2022/11/12 07:25:02;;;;;;;4.03;2.80;;;4.70;99.90;5.90;98272.00;;;;5046868;28;20216;-67
2022/11/12 07:27:53;;;;;;;4.47;2.57;;;4.80;99.90;5.70;98260.00;;;;5043385;28;20202;-69
2022/11/12 07:30:42;;;;;;;4.10;2.90;;;4.90;99.90;5.90;98260.00;;;;5043184;28;20602;-68
2022/11/12 07:33:32;;;;;;;3.57;2.47;;;5.00;99.90;6.00;98261.00;;;;5045060;28;20201;-67
2022/11/12 07:36:21;;;;;;;7.30;2.73;;;5.10;99.90;6.20;98274.00;;;;5037967;28;20201;-68
2022/11/12 07:39:12;;;;;;;2.50;2.30;;;5.20;99.90;6.20;98264.00;;;;5042870;28;20434;-69
2022/11/12 07:42:01;;;;;;;3.37;1.90;;;5.30;99.90;6.30;98266.00;;;;5048176;28;20220;-68
2022/11/12 07:44:51;;;;;;;2.10;1.13;;;5.50;99.90;6.30;98260.00;;;;5043927;28;20228;-72
2022/11/12 07:47:39;;;;;;;3.83;2.63;;;5.40;99.90;6.90;98266.00;;;;5041623;28;20655;-68
2022/11/12 07:50:28;;;;;;;7.03;2.93;;;5.50;99.90;7.10;98254.00;;;;5040729;28;20205;-68
2022/11/12 07:53:17;;;;;;;4.77;2.80;;;5.70;99.90;7.00;98248.00;;;;5039860;28;20216;-69
2022/11/12 07:56:06;;;;;;;3.93;3.10;;;5.80;99.90;7.00;98241.00;;;;5045128;28;20267;-66
2022/11/12 07:58:55;;;;;;;4.77;4.27;;;5.90;99.90;7.00;98257.00;;;;5043916;28;20240;-67
2022/11/12 08:01:45;;;;;;;6.07;3.47;;;5.90;99.90;7.40;98261.00;;;;5043377;28;20201;-66
2022/11/12 08:04:34;;;;;;;3.97;3.43;;;6.10;99.90;7.20;98248.00;;;;5035456;28;20221;-67
2022/11/12 08:07:23;;;;;;;3.63;2.63;;;6.10;99.90;7.30;98250.00;;;;5037943;28;20258;-66
2022/11/12 08:10:11;;;;;;;4.53;3.83;;;6.30;99.90;7.60;98255.00;;;;5045144;28;20201;-67
2022/11/12 08:13:00;;;;;;;4.77;3.70;;;6.30;99.90;8.00;98265.00;;;;5042816;28;20275;-66
2022/11/12 08:15:50;;;;;;;6.63;4.73;;;6.40;99.90;8.20;98269.00;;;;5047826;28;20217;-66
2022/11/12 08:18:43;;;;;;;7.90;4.73;;;6.60;99.90;8.40;98275.00;;;;5043619;28;20223;-66
2022/11/12 08:21:32;;;;;;;5.73;3.60;;;6.80;99.90;8.60;98267.00;;;;5038186;28;20209;-66
2022/11/12 08:24:21;;;;;;;5.47;4.90;;;7.10;99.90;8.70;98268.00;;;;5038339;28;20760;-66
2022/11/12 08:27:09;;;;;;;9.37;5.63;;;7.00;99.90;8.80;98266.00;;;;5039388;28;20248;-66
2022/11/12 08:29:58;;;;;;;6.53;4.53;;;7.20;99.90;8.80;98274.00;;;;5038111;28;20275;-66
2022/11/12 08:32:47;;;;;;;6.43;4.13;;;7.30;99.90;8.90;98282.00;;;;5044117;28;20232;-67
2022/11/12 08:35:38;;;;;;;5.87;4.47;;;7.40;99.90;9.00;98285.00;;;;5039302;28;20713;-67
2022/11/12 08:38:27;;;;;;;4.43;3.97;;;7.50;99.90;9.10;98292.00;;;;5038185;28;20704;-66
2022/11/12 08:41:16;;;;;;;4.37;3.70;;;7.60;99.90;9.30;98293.00;;;;5039914;28;20209;-67
2022/11/12 08:44:05;;;;;;;6.17;3.47;;;7.60;99.90;9.50;98285.00;;;;5045341;28;20209;-67
2022/11/12 08:46:56;;;;;;;7.77;4.23;;;7.80;99.90;9.60;98291.00;;;;5043961;28;20205;-66
2022/11/12 08:49:44;;;;;;;4.37;3.50;;;7.90;99.90;10.00;98282.00;;;;5041084;28;20220;-66
2022/11/12 08:52:37;;;;;;;7.33;4.43;;;8.10;99.90;10.00;98297.00;;;;5045439;28;20239;-66
2022/11/12 08:55:25;;;;;;;6.53;4.10;;;8.30;99.90;10.20;98303.00;;;;5039739;28;20224;-66
2022/11/12 08:58:14;;;;;;;5.83;4.67;;;8.50;99.90;10.40;98298.00;;;;5044892;28;20627;-66
2022/11/12 09:01:08;;;;;;;5.27;3.40;;;8.70;99.90;10.60;98289.00;;;;5039887;28;20229;-66
2022/11/12 09:03:57;;;;;;;6.67;4.57;;;9.30;99.90;10.70;98289.00;;;;5043666;28;20288;-66
2022/11/12 09:06:46;;;;;;;3.83;3.47;;;9.00;99.90;10.80;98293.00;;;;5043289;28;20199;-66
2022/11/12 09:09:38;;;;;;;7.37;3.97;;;9.20;99.90;11.20;98301.00;;;;5039182;28;20208;-67
2022/11/12 09:12:27;;;;;;;3.90;3.20;;;9.40;99.90;11.70;98294.00;;;;5043749;28;20232;-66
2022/11/12 09:15:16;;;;;;;4.73;3.50;;;9.70;99.90;11.80;98291.00;;;;5045299;28;20216;-66
2022/11/12 09:18:25;;;;;;;5.00;3.83;;;9.90;99.90;11.90;98288.00;;;;5038912;28;20208;-67
2022/11/12 09:21:14;;;;;;;4.27;3.20;;;10.20;99.90;12.00;98294.00;;;;5039358;28;20216;-67
2022/11/12 09:24:03;;;;;;;4.80;3.77;;;10.30;99.90;12.00;98296.00;;;;5042663;28;20205;-67
2022/11/12 09:26:54;;;;;;;5.27;3.40;;;10.50;99.90;12.10;98313.00;;;;5036209;28;20213;-67
2022/11/12 09:29:43;;;;;;;9.43;3.90;;;10.50;99.90;12.00;98296.00;;;;5042443;28;20203;-67
2022/11/12 09:32:32;;;;;;;4.53;3.17;;;10.60;99.90;12.00;98300.00;;;;5037849;28;20615;-67
2022/11/12 09:35:21;;;;;;;5.37;3.67;;;10.60;99.90;12.10;98303.00;;;;5043804;28;20400;-66
2022/11/12 09:38:10;;;;;;;3.23;2.83;;;10.60;99.90;12.00;98310.00;;;;5047576;28;20240;-66
2022/11/12 09:41:26;;;;;;;3.53;2.83;;;10.50;99.90;11.60;98300.00;;;;5033576;28;20488;-67
2022/11/12 09:44:20;;;;;;;4.10;3.40;;;10.50;99.90;11.90;98288.00;;;;5047216;28;20730;-67
2022/11/12 09:47:17;;;;;;;4.57;3.47;;;10.50;99.90;12.00;98301.00;;;;5046184;28;20687;-67
2022/11/12 09:50:21;;;;;;;3.60;3.30;;;10.50;99.90;11.90;98294.00;;;;5042793;28;20262;-66
2022/11/12 09:53:17;;;;;;;5.03;3.70;;;10.50;99.90;12.20;98294.00;;;;5040485;28;20235;-67
2022/11/12 09:56:08;;;;;;;7.60;3.87;;;10.60;99.90;12.30;98299.00;;;;5047767;28;20609;-67
2022/11/12 09:58:57;;;;;;;4.77;3.23;;;10.60;99.90;12.80;98293.00;;;;5041515;28;20647;-67
2022/11/12 10:02:01;;;;;;;7.67;4.00;;;10.80;99.90;13.20;98289.00;;;;5036782;28;20212;-67
2022/11/12 10:05:29;;;;;;;4.23;3.43;;;11.20;99.90;13.40;98280.00;;;;5045461;28;20234;-66
2022/11/12 10:08:37;;;;;;;4.00;3.27;;;11.60;99.90;13.30;98275.00;;;;5038846;28;20241;-67
2022/11/12 10:18:47;;;;;;;3.90;2.87;;;13.00;99.90;14.70;98282.00;;;;5045764;28;20254;-67
2022/11/12 10:21:46;;;;;;;5.10;3.50;;;13.40;99.90;15.40;98263.00;;;;5048012;28;20226;-67
2022/11/12 10:24:38;;;;;;;3.90;3.40;;;13.90;99.90;16.10;98251.00;;;;5035717;28;20220;-66
2022/11/12 10:27:39;;;;;;;5.70;3.47;;;14.50;99.90;16.50;98254.00;;;;5039368;28;20257;-66
2022/11/12 10:30:28;;;;;;;3.10;2.73;;;15.30;99.90;15.90;98256.00;;;;5042165;28;20275;-67
2022/11/12 10:33:17;;;;;;;4.90;3.53;;;15.90;99.90;15.60;98269.00;;;;5039850;28;20235;-66
2022/11/12 10:36:28;;;;;;;5.40;3.30;;;16.00;99.80;14.60;98259.00;;;;5038234;28;20224;-67
2022/11/12 10:39:38;;;;;;;4.43;3.43;;;15.30;98.90;14.50;98250.00;;;;5038701;28;20204;-67
2022/11/12 10:42:27;;;;;;;3.43;3.13;;;14.60;99.90;14.10;98236.00;;;;5034118;28;20208;-66
2022/11/12 10:45:22;;;;;;;3.60;2.90;;;13.90;99.90;14.80;98227.00;;;;5041143;28;20269;-67
2022/11/12 10:48:23;;;;;;;3.87;3.03;;;13.70;99.90;15.10;98226.00;;;;5038150;28;20692;-67
2022/11/12 10:51:27;;;;;;;3.00;2.33;;;13.90;99.90;15.60;98208.00;;;;5035103;28;20208;-67
2022/11/12 10:54:36;;;;;;;3.70;3.03;;;14.30;99.90;16.30;98213.00;;;;5039264;28;20236;-67
2022/11/12 10:57:27;;;;;;;5.00;3.10;;;14.70;99.90;16.40;98221.00;;;;5041696;28;20209;-67
2022/11/12 11:00:20;;;;;;;3.90;3.30;;;15.20;99.60;16.20;98213.00;;;;5042672;28;20208;-66
2022/11/12 11:03:20;;;;;;;3.97;3.03;;;15.40;98.50;16.20;98221.00;;;;5045735;28;20196;-67
2022/11/12 11:06:34;;;;;;;5.67;2.80;;;15.30;98.50;15.30;98200.00;;;;5040922;28;20270;-68
2022/11/12 11:09:25;;;;;;;4.10;3.10;;;15.20;98.20;16.40;98203.00;;;;5040734;28;20199;-67
2022/11/12 11:12:25;;;;;;;4.30;3.50;;;15.20;98.40;16.90;98197.00;;;;5039989;28;20231;-67
2022/11/12 11:15:21;;;;;;;3.73;3.33;;;15.40;97.80;18.20;98193.00;;;;5045484;28;20290;-67
2022/11/12 11:18:12;;;;;;;3.83;3.23;;;16.00;98.70;18.90;98197.00;;;;5047451;28;20255;-67
2022/11/12 11:21:18;;;;;;;6.63;3.93;;;16.60;98.10;18.30;98195.00;;;;5041048;28;20261;-67
2022/11/12 11:24:23;;;;;;;4.53;3.60;;;17.10;95.50;18.80;98182.00;;;;5039773;28;20279;-67
2022/11/12 11:27:25;;;;;;;3.67;2.60;;;17.50;95.00;19.10;98207.00;;;;5044825;28;20625;-67
2022/11/12 11:30:18;;;;;;;4.65;3.42;;;17.70;94.40;18.70;98211.00;;;;5043567;28;20485;-67
2022/11/12 11:33:26;;;;;;;3.33;2.87;;;17.60;94.20;18.40;98221.00;;;;5039578;28;20225;-68
2022/11/12 11:36:24;;;;;;;4.07;3.30;;;17.30;94.10;17.50;98217.00;;;;5037127;28;20262;-68
2022/11/12 11:39:25;;;;;;;3.97;3.13;;;17.00;93.20;17.40;98221.00;;;;5041083;28;20232;-68
2022/11/12 11:42:40;;;;;;;2.77;2.50;;;16.50;94.20;16.90;98218.00;;;;5040270;28;20270;-67
2022/11/12 11:45:53;;;;;;;6.37;3.20;;;16.10;94.30;17.00;98214.00;;;;5038520;28;20225;-68
2022/11/12 11:48:57;;;;;;;3.87;3.00;;;15.80;94.90;17.20;98218.00;;;;5040968;28;20204;-68
2022/11/12 11:51:56;;;;;;;4.23;3.33;;;15.70;95.60;17.30;98215.00;;;;5047085;28;20210;-67
2022/11/12 11:55:08;;;;;;;3.67;3.37;;;15.70;95.70;17.70;98200.00;;;;5044034;28;20235;-68
2022/11/12 11:58:12;;;;;;;3.77;3.00;;;15.80;95.80;18.50;98185.00;;;;5037503;28;20241;-68
2022/11/12 12:01:11;;;;;;;4.80;3.40;;;16.00;95.80;17.70;98193.00;;;;5043259;28;20208;-67
2022/11/12 12:04:19;;;;;;;3.57;2.83;;;16.60;93.10;17.30;98208.00;;;;5040556;28;20251;-67
2022/11/12 12:07:21;;;;;;;4.73;3.10;;;16.40;93.00;18.30;98214.00;;;;5041789;28;20225;-68
2022/11/12 12:10:25;;;;;;;3.17;2.83;;;16.50;94.00;18.40;98211.00;;;;5042291;28;20200;-67
2022/11/12 12:13:40;;;;;;;6.27;2.73;;;16.50;93.20;18.50;98206.00;;;;5041014;28;20224;-67
2022/11/12 12:16:43;;;;;;;4.50;2.63;;;16.60;93.90;18.30;98214.00;;;;5043776;28;20235;-68
2022/11/12 12:19:46;;;;;;;4.97;3.43;;;16.60;94.00;17.80;98212.00;;;;5042491;28;20208;-67
2022/11/12 12:22:42;;;;;;;3.43;2.57;;;16.50;93.10;17.90;98212.00;;;;5050773;28;20216;-67
2022/11/12 12:25:37;;;;;;;4.20;3.80;;;16.00;93.70;17.20;98207.00;;;;5044681;28;20398;-67
2022/11/12 12:28:35;;;;;;;7.10;5.87;;;16.30;94.00;16.80;98209.00;;;;5045631;28;20232;-67
2022/11/12 12:31:31;;;;;;;4.00;3.60;;;16.00;94.10;16.60;98211.00;;;;5051350;28;20200;-67
2022/11/12 12:34:28;;;;;;;5.07;4.57;;;15.70;93.80;17.20;98210.00;;;;5041474;28;20608;-67
2022/11/12 12:37:24;;;;;;;5.73;5.13;;;15.60;94.20;16.90;98206.00;;;;5046925;28;20208;-67
2022/11/12 12:40:19;;;;;;;5.53;5.03;;;15.60;94.90;17.10;98203.00;;;;5043689;28;20205;-66
2022/11/12 12:43:19;;;;;;;4.73;4.33;;;15.50;95.30;16.80;98211.00;;;;5047243;28;20254;-66
2022/11/12 12:46:13;;;;;;;4.80;4.03;;;15.40;94.70;17.20;98207.00;;;;5041101;28;20231;-66
2022/11/12 12:49:05;;;;;;;6.60;4.00;;;15.40;94.60;16.90;98195.00;;;;5039820;28;20708;-66
2022/11/12 12:51:54;;;;;;;4.83;3.50;;;15.40;94.50;16.80;98198.00;;;;5039627;28;20197;-66
2022/11/12 12:54:58;;;;;;;4.80;3.13;;;15.30;94.30;17.20;98198.00;;;;5041777;28;20236;-66
2022/11/12 12:57:47;;;;;;;3.80;3.17;;;15.30;95.00;17.40;98194.00;;;;5044008;28;20285;-66
2022/11/12 13:00:40;;;;;;;3.63;3.33;;;15.30;95.70;17.60;98197.00;;;;5042836;28;20259;-67
2022/11/12 13:03:50;;;;;;;3.43;3.10;;;15.40;96.10;17.80;98201.00;;;;5048422;28;20215;-67
2022/11/12 13:06:50;;;;;;;5.10;3.50;;;15.60;96.20;17.90;98195.00;;;;5046886;28;20216;-67
2022/11/12 13:09:39;;;;;;;3.53;2.90;;;15.70;95.90;18.00;98198.00;;;;5048241;28;20211;-67
2022/11/12 13:13:02;;;;;;;6.53;2.83;;;15.80;96.40;18.50;98187.00;;;;5050192;28;20224;-67
2022/11/12 13:15:54;;;;;;;3.23;2.93;;;16.10;97.30;18.50;98156.00;;;;5049443;28;20224;-67
2022/11/12 13:19:10;;;;;;;4.07;3.03;;;16.60;97.10;20.70;98161.00;;;;5043608;28;20247;-67
2022/11/12 13:22:34;;;;;;;3.63;2.60;;;17.40;96.50;22.90;98147.00;;;;5044657;28;20201;-67
2022/11/12 13:25:27;;;;;;;;;;;18.70;94.30;24.30;98150.00;;;;5046642;28;20045;-68
2022/11/12 13:28:15;;;;;;;;;;;20.30;92.00;24.90;98147.00;;;;5044745;28;20284;-68
2022/11/12 13:31:24;;;;;;;;;;;21.60;87.30;25.70;98145.00;;;;5035105;28;20051;-68
2022/11/12 13:34:21;;;;;;;;;;;22.60;81.90;26.40;98149.00;;;;5041386;28;19975;-68
2022/11/12 13:37:18;;;;;;;;;;;23.60;74.80;27.10;98156.00;;;;5039532;28;20304;-68